Ever Ulysses — 9V7962 — position and weather

sailwx.info

Track history (hours):
 
Tides and Currents Weather Stations Pressure Air Temp Water Temp Dewpoint Dewpoint Depression Visibility Wind Speed Wind Dir Waves Ship Positions

Ever Ulysses

Last reported at 2015-Aug-26 17:06 UTC. Time now 2015-Sep-05 14:19 UTC.
Position N 34°51' E 140°34'.
Warning: this ship's position is 9 days out of date.

Length 285 m; draft 12.2 m.

Type: Cargo ship. MMSI: 564442000.

Date/timePositionNaut miles runAvg speedWind from/ knotsBaromVisibWave heightAir tempDewpointWater temp
2015-Aug-26 17:06N 34°51' E 140°34'1017.1
2015-Aug-26 16:33N 34°50' E 140°23'1716.9
2015-Aug-26 15:34N 34°48' E 140°03'1615.9
2015-Aug-26 14:33N 34°46' E 139°43'  
2015-Aug-23 16:08N 24°31' E 119°23'1013.2
2015-Aug-23 15:24N 24°26' E 119°15'2512.7
2015-Aug-23 13:29N 24°11' E 118°53'10312.9
2015-Aug-23 05:32N 23°08' E 117°25'1313.4
2015-Aug-23 04:33N 23°01' E 117°13'2613.0
2015-Aug-23 02:32N 22°46' E 116°49'12712.5
2015-Aug-22 16:23N 22°21' E 114°35'2211.6
2015-Aug-22 14:31N 22°34' E 114°16'0 0.4
2015-Aug-22 13:30N 22°34' E 114°16'0 0.0
2015-Aug-22 12:18N 22°34' E 114°16'0 0.0
2015-Aug-22 11:13N 22°34' E 114°16'0 0.0
2015-Aug-22 10:28N 22°34' E 114°16'0 0.0
2015-Aug-22 09:32N 22°34' E 114°16'0 0.0
2015-Aug-22 08:27N 22°34' E 114°16'0 0.0
2015-Aug-22 07:25N 22°34' E 114°16'0 0.0
2015-Aug-22 06:33N 22°34' E 114°16'0 0.0
2015-Aug-22 05:28N 22°34' E 114°16'0 0.0
2015-Aug-22 03:19N 22°34' E 114°16'0 0.0
2015-Aug-22 01:11N 22°34' E 114°16'0 0.0
2015-Aug-22 00:33N 22°34' E 114°16'0 0.0
2015-Aug-21 22:25N 22°34' E 114°16'0 0.0
2015-Aug-21 21:32N 22°34' E 114°16'0 0.0
2015-Aug-21 20:04N 22°34' E 114°16'0 0.0
2015-Aug-21 19:34N 22°34' E 114°16'0 0.0
2015-Aug-21 18:30N 22°34' E 114°16'0 0.0
2015-Aug-21 17:28N 22°34' E 114°16'0 0.0
2015-Aug-21 16:27N 22°34' E 114°16'16 1.4
2015-Aug-21 04:33N 22°23' E 114°28'1212.0
2015-Aug-21 03:32N 22°11' E 114°25'1111.2
2015-Aug-21 02:32N 22°08' E 114°13'1111.5
2015-Aug-21 01:33N 22°17' E 114°06'1110.0
2015-Aug-21 00:29N 22°21' E 113°55'6 5.5
2015-Aug-20 23:24N 22°27' E 113°53'0 0.0
2015-Aug-20 22:30N 22°27' E 113°53'0 0.0
2015-Aug-20 21:30N 22°27' E 113°53'0 0.0
2015-Aug-20 20:30N 22°27' E 113°53'0 0.0
2015-Aug-20 19:30N 22°27' E 113°53'0 0.0
2015-Aug-20 18:30N 22°27' E 113°53'0 0.0
2015-Aug-20 17:30N 22°27' E 113°53'0 0.0
2015-Aug-20 16:30N 22°27' E 113°53'0 0.0
2015-Aug-20 15:30N 22°27' E 113°53'0 0.0
2015-Aug-20 14:24N 22°27' E 113°53'0 0.0
2015-Aug-20 13:24N 22°27' E 113°53'0 0.1
2015-Aug-20 12:33N 22°27' E 113°53'8 6.6
2015-Aug-20 11:24N 22°21' E 113°58'8 9.1
2015-Aug-20 10:33N 22°18' E 114°06'10 8.5
2015-Aug-20 09:25N 22°10' E 114°13'1011.2
2015-Aug-20 08:32N 22°08' E 114°23'1313.1
2015-Aug-20 07:31N 22°08' E 114°37'20113.1
2015-Aug-19 16:06N 23°34' E 117°55'713.1
2015-Aug-19 15:32N 23°40' E 117°59'1713.4
2015-Aug-19 14:18N 23°53' E 118°11'1213.0
2015-Aug-19 13:21N 24°04' E 118°18'1012.3
2015-Aug-19 12:33N 24°14' E 118°17'1413.7
2015-Aug-19 11:33N 24°24' E 118°06'6 2.8
2015-Aug-19 09:17N 24°27' E 118°00'0 0.0
2015-Aug-19 07:29N 24°27' E 118°00'0 0.0
2015-Aug-19 03:29N 24°27' E 118°00'0 0.0
2015-Aug-19 00:29N 24°27' E 118°00'0 0.0
2015-Aug-18 23:29N 24°27' E 118°00'0 0.0
2015-Aug-18 21:23N 24°27' E 118°00'0 0.0
2015-Aug-18 19:11N 24°27' E 118°00'0 0.0
2015-Aug-18 17:17N 24°27' E 118°00'2 2.7
2015-Aug-18 16:34N 24°26' E 118°02'9 9.5
2015-Aug-18 15:33N 24°20' E 118°11'1010.3
2015-Aug-18 14:33N 24°13' E 118°19'2417.6
2015-Aug-18 13:11N 24°22' E 118°43'2918.0
2015-Aug-18 11:33N 24°31' E 119°13'  
Track history (hours):
 
Tides and Currents Weather Stations Pressure Air Temp Water Temp Dewpoint Dewpoint Depression Visibility Wind Speed Wind Dir Waves Ship Positions

Ever Ulysses

Last reported at 2015-Aug-26 17:06 UTC. Time now 2015-Sep-05 14:19 UTC.
Position N 34°51' E 140°34'.
Warning: this ship's position is 9 days out of date.

Length 285 m; draft 12.2 m.

Type: Cargo ship. MMSI: 564442000.

Date/timePositionNaut miles runAvg speedWind from/ knotsBaromVisibWave heightAir tempDewpointWater temp
2015-Aug-26 17:06N 34°51' E 140°34'1017.1
2015-Aug-26 16:33N 34°50' E 140°23'1716.9
2015-Aug-26 15:34N 34°48' E 140°03'1615.9
2015-Aug-26 14:33N 34°46' E 139°43'  
2015-Aug-23 16:08N 24°31' E 119°23'1013.2
2015-Aug-23 15:24N 24°26' E 119°15'2512.7
2015-Aug-23 13:29N 24°11' E 118°53'10312.9
2015-Aug-23 05:32N 23°08' E 117°25'1313.4
2015-Aug-23 04:33N 23°01' E 117°13'2613.0
2015-Aug-23 02:32N 22°46' E 116°49'12712.5
2015-Aug-22 16:23N 22°21' E 114°35'2211.6
2015-Aug-22 14:31N 22°34' E 114°16'0 0.4
2015-Aug-22 13:30N 22°34' E 114°16'0 0.0
2015-Aug-22 12:18N 22°34' E 114°16'0 0.0
2015-Aug-22 11:13N 22°34' E 114°16'0 0.0
2015-Aug-22 10:28N 22°34' E 114°16'0 0.0
2015-Aug-22 09:32N 22°34' E 114°16'0 0.0
2015-Aug-22 08:27N 22°34' E 114°16'0 0.0
2015-Aug-22 07:25N 22°34' E 114°16'0 0.0
2015-Aug-22 06:33N 22°34' E 114°16'0 0.0
2015-Aug-22 05:28N 22°34' E 114°16'0 0.0
2015-Aug-22 03:19N 22°34' E 114°16'0 0.0
2015-Aug-22 01:11N 22°34' E 114°16'0 0.0
2015-Aug-22 00:33N 22°34' E 114°16'0 0.0
2015-Aug-21 22:25N 22°34' E 114°16'0 0.0
2015-Aug-21 21:32N 22°34' E 114°16'0 0.0
2015-Aug-21 20:04N 22°34' E 114°16'0 0.0
2015-Aug-21 19:34N 22°34' E 114°16'0 0.0
2015-Aug-21 18:30N 22°34' E 114°16'0 0.0
2015-Aug-21 17:28N 22°34' E 114°16'0 0.0
2015-Aug-21 16:27N 22°34' E 114°16'16 1.4
2015-Aug-21 04:33N 22°23' E 114°28'1212.0
2015-Aug-21 03:32N 22°11' E 114°25'1111.2
2015-Aug-21 02:32N 22°08' E 114°13'1111.5
2015-Aug-21 01:33N 22°17' E 114°06'1110.0
2015-Aug-21 00:29N 22°21' E 113°55'6 5.5
2015-Aug-20 23:24N 22°27' E 113°53'0 0.0
2015-Aug-20 22:30N 22°27' E 113°53'0 0.0
2015-Aug-20 21:30N 22°27' E 113°53'0 0.0
2015-Aug-20 20:30N 22°27' E 113°53'0 0.0
2015-Aug-20 19:30N 22°27' E 113°53'0 0.0
2015-Aug-20 18:30N 22°27' E 113°53'0 0.0
2015-Aug-20 17:30N 22°27' E 113°53'0 0.0
2015-Aug-20 16:30N 22°27' E 113°53'0 0.0
2015-Aug-20 15:30N 22°27' E 113°53'0 0.0
2015-Aug-20 14:24N 22°27' E 113°53'0 0.0
2015-Aug-20 13:24N 22°27' E 113°53'0 0.1
2015-Aug-20 12:33N 22°27' E 113°53'8 6.6
2015-Aug-20 11:24N 22°21' E 113°58'8 9.1
2015-Aug-20 10:33N 22°18' E 114°06'10 8.5
2015-Aug-20 09:25N 22°10' E 114°13'1011.2
2015-Aug-20 08:32N 22°08' E 114°23'1313.1
2015-Aug-20 07:31N 22°08' E 114°37'20113.1
2015-Aug-19 16:06N 23°34' E 117°55'713.1
2015-Aug-19 15:32N 23°40' E 117°59'1713.4
2015-Aug-19 14:18N 23°53' E 118°11'1213.0
2015-Aug-19 13:21N 24°04' E 118°18'1012.3
2015-Aug-19 12:33N 24°14' E 118°17'1413.7
2015-Aug-19 11:33N 24°24' E 118°06'6 2.8
2015-Aug-19 09:17N 24°27' E 118°00'0 0.0
2015-Aug-19 07:29N 24°27' E 118°00'0 0.0
2015-Aug-19 03:29N 24°27' E 118°00'0 0.0
2015-Aug-19 00:29N 24°27' E 118°00'0 0.0
2015-Aug-18 23:29N 24°27' E 118°00'0 0.0
2015-Aug-18 21:23N 24°27' E 118°00'0 0.0
2015-Aug-18 19:11N 24°27' E 118°00'0 0.0
2015-Aug-18 17:17N 24°27' E 118°00'2 2.7
2015-Aug-18 16:34N 24°26' E 118°02'9 9.5
2015-Aug-18 15:33N 24°20' E 118°11'1010.3
2015-Aug-18 14:33N 24°13' E 118°19'2417.6
2015-Aug-18 13:11N 24°22' E 118°43'2918.0
2015-Aug-18 11:33N 24°31' E 119°13'  

Dump ship's entire track history